createdAt,value
2024-05-09T00:01:47.235Z,7.57
2024-05-09T00:04:16.943Z,8.57
2024-05-09T00:06:49.261Z,8.33
2024-05-09T00:09:18.853Z,8.67
2024-05-09T00:11:48.801Z,8.63
2024-05-09T00:14:18.498Z,8.50
2024-05-09T00:16:48.591Z,8.43
2024-05-09T00:19:18.672Z,7.90
2024-05-09T00:21:51.026Z,8.20
2024-05-09T00:24:20.643Z,9.03
2024-05-09T00:26:50.344Z,8.43
2024-05-09T00:29:20.074Z,8.97
2024-05-09T00:31:50.235Z,9.07
2024-05-09T00:34:20.074Z,9.30
2024-05-09T00:36:52.447Z,9.77
2024-05-09T00:39:22.140Z,9.80
2024-05-09T00:41:51.883Z,9.57
2024-05-09T00:44:21.700Z,9.70
2024-05-09T00:46:54.629Z,8.47
2024-05-09T00:49:24.679Z,9.50
2024-05-09T00:51:59.577Z,9.20
2024-05-09T00:54:29.851Z,9.47
2024-05-09T00:56:59.750Z,9.13
2024-05-09T00:59:30.599Z,9.00
2024-05-09T01:02:02.395Z,9.27
2024-05-09T01:04:32.215Z,8.47
2024-05-09T01:07:04.607Z,8.57
2024-05-09T01:09:34.253Z,8.10
2024-05-09T01:12:04.201Z,8.20
2024-05-09T01:14:34.264Z,8.30
2024-05-09T01:17:04.057Z,8.70
2024-05-09T01:19:34.358Z,8.07
2024-05-09T01:22:08.079Z,8.73
2024-05-09T01:24:40.325Z,8.97
2024-05-09T01:27:09.959Z,8.47
2024-05-09T01:29:40.638Z,9.00
2024-05-09T01:32:10.533Z,8.17
2024-05-09T01:34:40.207Z,8.87
2024-05-09T01:37:09.844Z,8.80
2024-05-09T01:39:42.357Z,8.57
2024-05-09T01:42:12.093Z,9.07
2024-05-09T01:44:43.425Z,9.70
2024-05-09T01:47:13.299Z,8.83
2024-05-09T01:49:43.387Z,9.20
2024-05-09T01:52:13.088Z,9.43
2024-05-09T01:54:45.392Z,9.03
2024-05-09T01:57:15.225Z,8.47
2024-05-09T01:59:44.900Z,9.70
2024-05-09T02:02:15.306Z,9.10
2024-05-09T02:04:48.691Z,9.73
2024-05-09T02:07:18.625Z,8.57
2024-05-09T02:09:50.983Z,8.87
2024-05-09T02:12:20.863Z,8.80
2024-05-09T02:14:50.667Z,9.37
2024-05-09T02:17:20.444Z,8.07
2024-05-09T02:19:50.286Z,7.47
2024-05-09T02:22:19.934Z,8.60
2024-05-09T02:24:52.284Z,9.13
2024-05-09T02:27:22.051Z,8.20
2024-05-09T02:29:51.707Z,9.07
2024-05-09T02:32:25.953Z,8.73
2024-05-09T02:34:55.782Z,9.07
2024-05-09T02:37:22.867Z,8.87
2024-05-09T02:39:55.168Z,8.57
2024-05-09T02:42:24.815Z,9.90
2024-05-09T02:44:52.019Z,9.53
2024-05-09T02:47:21.834Z,8.73
2024-05-09T02:49:49.080Z,9.03
2024-05-09T02:52:21.218Z,9.70
2024-05-09T02:54:48.329Z,9.80
2024-05-09T02:57:22.400Z,9.90
2024-05-09T02:59:49.827Z,8.57
2024-05-09T03:02:20.139Z,9.87
2024-05-09T03:04:47.362Z,9.77
2024-05-09T03:07:19.741Z,9.17
2024-05-09T03:09:47.409Z,10.03
2024-05-09T03:12:20.339Z,9.77
2024-05-09T03:14:50.256Z,10.00
2024-05-09T03:17:20.005Z,10.00
2024-05-09T03:19:47.100Z,10.50
2024-05-09T03:22:16.766Z,10.67
2024-05-09T03:24:43.887Z,10.80
2024-05-09T03:27:13.644Z,9.43
2024-05-09T03:29:43.396Z,9.60
2024-05-09T03:32:13.233Z,9.53
2024-05-09T03:34:40.368Z,8.93
2024-05-09T03:37:10.104Z,9.60
2024-05-09T03:39:39.751Z,9.27
2024-05-09T03:42:09.423Z,9.37
2024-05-09T03:44:39.436Z,9.30
2024-05-09T03:47:09.108Z,9.33
2024-05-09T03:49:38.870Z,9.90
2024-05-09T03:52:06.524Z,9.40
2024-05-09T03:54:37.853Z,10.17
2024-05-09T03:57:05.638Z,10.03
2024-05-09T03:59:36.817Z,9.53
2024-05-09T04:02:06.504Z,9.67
2024-05-09T04:04:39.125Z,9.97
2024-05-09T04:07:06.999Z,10.17
2024-05-09T04:09:36.687Z,10.13
2024-05-09T04:12:05.358Z,9.23
2024-05-09T04:14:36.029Z,10.50
2024-05-09T04:17:03.531Z,9.97
2024-05-09T04:19:33.324Z,10.10
2024-05-09T04:22:03.073Z,10.00
2024-05-09T04:24:32.786Z,9.40
2024-05-09T04:26:59.832Z,10.97
2024-05-09T04:29:31.036Z,10.37
2024-05-09T04:31:58.177Z,10.10
2024-05-09T04:34:28.097Z,10.27
2024-05-09T04:36:55.180Z,9.57
2024-05-09T04:39:27.524Z,10.40
2024-05-09T04:41:54.651Z,9.87
2024-05-09T04:44:24.641Z,9.87
2024-05-09T04:46:51.788Z,9.60
2024-05-09T04:49:22.571Z,10.30
2024-05-09T04:51:49.788Z,11.37
2024-05-09T04:54:26.259Z,11.40
2024-05-09T04:57:03.771Z,10.57
2024-05-09T04:59:33.463Z,10.93
2024-05-09T05:02:00.788Z,11.37
2024-05-09T05:04:31.109Z,11.90
2024-05-09T05:07:01.364Z,11.57
2024-05-09T05:09:32.348Z,11.57
2024-05-09T05:12:01.995Z,11.80
2024-05-09T05:14:34.469Z,12.20
2024-05-09T05:17:01.544Z,11.47
2024-05-09T05:19:31.432Z,12.23
2024-05-09T05:22:02.409Z,12.20
2024-05-09T05:24:29.441Z,12.77
2024-05-09T05:26:59.786Z,12.53
2024-05-09T05:29:26.981Z,13.43
2024-05-09T05:31:59.699Z,13.37
2024-05-09T05:34:26.798Z,13.63
2024-05-09T05:36:56.574Z,13.23
2024-05-09T05:39:24.850Z,14.63
2024-05-09T05:41:54.472Z,15.33
2024-05-09T05:44:21.623Z,14.87
2024-05-09T05:46:51.880Z,15.23
2024-05-09T05:49:21.727Z,14.30
2024-05-09T05:51:51.402Z,14.87
2024-05-09T05:54:18.441Z,14.20
2024-05-09T05:56:48.022Z,14.17
2024-05-09T05:59:15.578Z,13.67
2024-05-09T06:01:45.427Z,14.13
2024-05-09T06:04:12.622Z,13.30
2024-05-09T06:06:44.966Z,13.33
2024-05-09T06:09:12.041Z,13.37
2024-05-09T06:11:42.875Z,13.40
2024-05-09T06:14:10.050Z,13.70
2024-05-09T06:16:40.587Z,13.10
2024-05-09T06:19:07.913Z,12.73
2024-05-09T06:21:37.568Z,12.90
2024-05-09T06:24:07.414Z,10.87
2024-05-09T06:26:37.154Z,10.23
2024-05-09T06:29:04.187Z,10.23
2024-05-09T06:31:33.936Z,9.90
2024-05-09T06:34:01.258Z,10.27
2024-05-09T06:36:30.972Z,9.13
2024-05-09T06:38:58.015Z,9.63
2024-05-09T06:41:30.368Z,8.50
2024-05-09T06:43:58.224Z,8.73
2024-05-09T06:46:29.404Z,8.37
2024-05-09T06:48:56.894Z,8.67
2024-05-09T06:51:26.632Z,7.97
2024-05-09T06:53:54.731Z,7.77
2024-05-09T06:56:24.575Z,7.97
2024-05-09T06:58:54.524Z,7.70
2024-05-09T07:01:24.510Z,7.70
2024-05-09T07:03:54.237Z,7.70
2024-05-09T07:06:21.357Z,6.47
2024-05-09T07:08:52.456Z,7.10
2024-05-09T07:11:20.028Z,7.10
2024-05-09T07:13:50.127Z,7.23
2024-05-09T07:16:19.994Z,7.40
2024-05-09T07:18:54.935Z,6.87
2024-05-09T07:21:22.525Z,6.80
2024-05-09T07:23:52.521Z,6.60
2024-05-09T07:26:19.742Z,6.50
2024-05-09T07:28:49.589Z,6.20
2024-05-09T07:31:19.330Z,6.43
2024-05-09T07:33:49.063Z,6.50
2024-05-09T07:36:16.242Z,6.17
2024-05-09T07:38:46.072Z,6.00
2024-05-09T07:41:14.505Z,5.83
2024-05-09T07:43:44.437Z,5.43
2024-05-09T07:47:14.082Z,5.97
2024-05-09T07:50:53.397Z,5.70
2024-05-09T07:53:20.957Z,5.20
2024-05-09T07:54:41.933Z,5.90
2024-05-09T07:57:09.047Z,5.97
2024-05-09T07:59:38.739Z,5.43
2024-05-09T08:02:06.331Z,5.63
2024-05-09T08:04:38.887Z,5.87
2024-05-09T08:07:06.156Z,5.90
2024-05-09T08:09:38.402Z,5.10
2024-05-09T08:12:05.821Z,5.73
2024-05-09T08:14:35.657Z,5.80
2024-05-09T08:17:02.839Z,6.33
2024-05-09T08:19:32.828Z,5.67
2024-05-09T08:22:07.074Z,5.83
2024-05-09T08:24:37.046Z,5.70
2024-05-09T08:27:04.517Z,5.27
2024-05-09T08:29:36.635Z,5.63
2024-05-09T08:32:05.926Z,5.37
2024-05-09T08:34:35.660Z,5.00
2024-05-09T08:37:12.978Z,5.33
2024-05-09T08:39:49.078Z,5.13
2024-05-09T08:42:18.477Z,4.17
2024-05-09T08:44:51.069Z,4.90
2024-05-09T08:47:18.257Z,4.23
2024-05-09T08:49:49.612Z,4.00
2024-05-09T08:52:19.286Z,4.73
2024-05-09T08:54:49.066Z,4.40
2024-05-09T08:57:17.095Z,4.07
2024-05-09T08:59:50.936Z,3.77
2024-05-09T09:02:19.454Z,3.60
2024-05-09T09:04:55.807Z,4.23
2024-05-09T09:07:26.627Z,3.73
2024-05-09T09:09:57.339Z,3.30
2024-05-09T09:12:24.378Z,4.00
2024-05-09T09:14:54.019Z,4.37
2024-05-09T09:17:21.045Z,4.23
2024-05-09T09:19:50.731Z,4.00
2024-05-09T09:22:19.734Z,3.73
2024-05-09T09:24:53.750Z,4.10
2024-05-09T09:27:22.442Z,4.33
2024-05-09T09:29:52.148Z,4.40
2024-05-09T09:32:19.440Z,3.67
2024-05-09T09:34:50.816Z,4.30
2024-05-09T09:37:23.459Z,4.80
2024-05-09T09:39:56.320Z,4.37
2024-05-09T09:42:27.668Z,4.53
2024-05-09T09:45:04.815Z,4.13
2024-05-09T09:47:35.102Z,4.17
2024-05-09T09:50:11.848Z,3.77
2024-05-09T09:52:41.714Z,4.40
2024-05-09T09:55:14.968Z,4.00
2024-05-09T09:57:45.355Z,3.80
2024-05-09T10:00:23.623Z,4.23
2024-05-09T10:02:54.162Z,3.03
2024-05-09T10:05:24.290Z,3.43
2024-05-09T10:07:55.354Z,4.07
2024-05-09T10:10:32.438Z,4.40
2024-05-09T10:13:00.795Z,4.50
2024-05-09T10:15:31.907Z,4.20
2024-05-09T10:18:05.282Z,3.73
2024-05-09T10:20:43.000Z,4.20
2024-05-09T10:23:24.384Z,4.30
2024-05-09T10:26:04.823Z,3.40
2024-05-09T10:28:33.509Z,3.20
2024-05-09T10:31:10.790Z,3.23
2024-05-09T10:33:39.292Z,4.23
2024-05-09T10:36:14.260Z,3.40
2024-05-09T10:38:41.950Z,3.10
2024-05-09T10:41:15.140Z,3.53
2024-05-09T10:43:42.519Z,3.73
2024-05-09T10:46:13.514Z,3.70
2024-05-09T10:48:43.312Z,3.07
2024-05-09T10:51:14.158Z,3.23
2024-05-09T10:53:43.324Z,2.47
2024-05-09T10:56:16.751Z,2.60
2024-05-09T10:58:44.652Z,2.50
2024-05-09T11:01:15.533Z,2.83
2024-05-09T11:03:47.247Z,2.97
2024-05-09T11:06:19.543Z,2.67
2024-05-09T11:08:47.426Z,2.70
2024-05-09T11:11:20.144Z,2.37
2024-05-09T11:13:47.306Z,2.80
2024-05-09T11:16:21.893Z,3.13
2024-05-09T11:18:56.905Z,2.90
2024-05-09T11:21:42.548Z,2.83
2024-05-09T11:24:11.290Z,2.53
2024-05-09T11:26:45.550Z,2.90
2024-05-09T11:29:15.051Z,2.57
2024-05-09T11:31:49.375Z,3.10
2024-05-09T11:34:16.695Z,2.30
2024-05-09T11:36:46.665Z,2.80
2024-05-09T11:39:14.745Z,2.87
2024-05-09T11:41:47.305Z,4.60
2024-05-09T11:44:14.314Z,4.00
2024-05-09T11:46:45.788Z,2.90
2024-05-09T11:49:14.370Z,2.60
2024-05-09T11:51:44.116Z,2.30
2024-05-09T11:54:11.157Z,2.67
2024-05-09T11:56:40.759Z,3.17
2024-05-09T11:59:11.484Z,2.83
2024-05-09T12:01:41.236Z,4.37
2024-05-09T12:04:09.336Z,3.10
2024-05-09T12:06:39.235Z,2.90
2024-05-09T12:09:06.271Z,4.10
2024-05-09T12:11:37.011Z,3.60
2024-05-09T12:14:05.829Z,3.73
2024-05-09T12:16:38.724Z,3.50
2024-05-09T12:19:06.075Z,2.60
2024-05-09T12:21:35.771Z,3.07
2024-05-09T12:24:02.802Z,2.80
2024-05-09T12:26:32.511Z,3.00
2024-05-09T12:28:59.674Z,2.80
2024-05-09T12:31:29.461Z,2.90
2024-05-09T12:34:00.353Z,2.43
2024-05-09T12:36:30.239Z,2.60
2024-05-09T12:38:57.353Z,2.70
2024-05-09T12:41:28.191Z,2.70
2024-05-09T12:43:55.222Z,2.83
2024-05-09T12:46:27.295Z,2.40
2024-05-09T12:48:54.741Z,2.63
2024-05-09T12:51:28.297Z,2.57
2024-05-09T12:53:55.376Z,2.40
2024-05-09T12:56:25.144Z,2.63
2024-05-09T12:58:52.218Z,2.60
2024-05-09T13:01:22.258Z,2.40
2024-05-09T13:03:49.732Z,2.30
2024-05-09T13:06:19.571Z,2.50
2024-05-09T13:08:49.399Z,2.40
2024-05-09T13:11:19.128Z,2.37
2024-05-09T13:13:46.472Z,2.50
2024-05-09T13:16:16.186Z,2.30
2024-05-09T13:18:44.495Z,2.60
2024-05-09T13:21:14.260Z,2.23
2024-05-09T13:23:41.216Z,2.43
2024-05-09T13:26:13.588Z,1.90
2024-05-09T13:28:41.202Z,2.30
2024-05-09T13:31:13.994Z,2.20
2024-05-09T13:33:41.169Z,2.30
2024-05-09T13:36:11.037Z,2.57
2024-05-09T13:38:38.191Z,2.10
2024-05-09T13:41:08.524Z,2.10
2024-05-09T13:43:38.886Z,2.40
2024-05-09T13:46:08.789Z,2.33
2024-05-09T13:48:35.978Z,2.10
2024-05-09T13:51:06.002Z,2.30
2024-05-09T13:53:34.264Z,2.43
2024-05-09T13:56:04.345Z,2.27
2024-05-09T13:58:31.767Z,1.90
2024-05-09T14:01:05.403Z,2.27
2024-05-09T14:03:34.288Z,2.60
2024-05-09T14:06:04.274Z,2.70
2024-05-09T14:08:31.400Z,2.33
2024-05-09T14:11:01.297Z,2.20
2024-05-09T14:13:28.666Z,2.17
2024-05-09T14:15:58.632Z,2.40
2024-05-09T14:18:29.510Z,2.13
2024-05-09T14:21:00.356Z,2.20
2024-05-09T14:23:27.391Z,2.33
2024-05-09T14:25:57.053Z,2.00
2024-05-09T14:28:27.924Z,2.40
2024-05-09T14:31:01.274Z,2.10
2024-05-09T14:33:31.364Z,2.40
2024-05-09T14:36:02.881Z,2.50
2024-05-09T14:38:30.333Z,2.40
2024-05-09T14:41:00.556Z,2.93
2024-05-09T14:43:30.769Z,2.80
2024-05-09T14:46:00.778Z,2.40
2024-05-09T14:48:30.804Z,2.77
2024-05-09T14:51:00.538Z,2.47
2024-05-09T14:53:29.901Z,2.33
2024-05-09T14:56:01.257Z,2.10
2024-05-09T14:58:29.203Z,2.63
2024-05-09T15:01:00.924Z,2.50
2024-05-09T15:03:30.741Z,2.23
2024-05-09T15:06:01.212Z,2.47
2024-05-09T15:08:28.419Z,2.27
2024-05-09T15:10:58.477Z,2.27
2024-05-09T15:13:25.763Z,2.50
2024-05-09T15:15:58.926Z,2.20
2024-05-09T15:18:26.696Z,2.20
2024-05-09T15:21:00.373Z,2.50
2024-05-09T15:23:28.444Z,2.30
2024-05-09T15:25:58.322Z,2.43
2024-05-09T15:28:25.705Z,2.07
2024-05-09T15:30:55.624Z,2.20
2024-05-09T15:33:22.743Z,3.70
2024-05-09T15:35:55.019Z,3.10
2024-05-09T15:38:28.463Z,2.60
2024-05-09T15:40:59.868Z,2.50
2024-05-09T15:43:28.071Z,2.60
2024-05-09T15:46:00.033Z,2.47
2024-05-09T15:48:27.315Z,2.63
2024-05-09T15:50:57.810Z,2.27
2024-05-09T15:53:27.662Z,2.30
2024-05-09T15:55:58.315Z,2.27
2024-05-09T15:58:25.730Z,2.47
2024-05-09T16:00:58.374Z,2.23
2024-05-09T16:03:26.222Z,2.47
2024-05-09T16:05:57.666Z,2.23
2024-05-09T16:08:27.789Z,2.40
2024-05-09T16:10:57.714Z,2.20
2024-05-09T16:13:25.740Z,2.83
2024-05-09T16:15:57.042Z,2.97
2024-05-09T16:18:24.570Z,2.63
2024-05-09T16:20:59.533Z,2.40
2024-05-09T16:23:30.005Z,2.53
2024-05-09T16:26:00.608Z,2.80
2024-05-09T16:28:28.885Z,2.53
2024-05-09T16:30:59.472Z,2.47
2024-05-09T16:33:27.586Z,2.50
2024-05-09T16:35:58.911Z,2.20
2024-05-09T16:38:29.703Z,2.03
2024-05-09T16:40:59.937Z,2.43
2024-05-09T16:43:27.199Z,2.20
2024-05-09T16:45:56.892Z,2.43
2024-05-09T16:48:25.039Z,2.40
2024-05-09T16:50:54.784Z,2.70
2024-05-09T16:53:22.710Z,2.30
2024-05-09T16:55:55.464Z,3.07
2024-05-09T16:58:22.947Z,2.73
2024-05-09T17:00:53.311Z,2.43
2024-05-09T17:03:23.577Z,2.93
2024-05-09T17:05:53.601Z,2.70
2024-05-09T17:08:23.453Z,2.30
2024-05-09T17:10:53.326Z,2.57
2024-05-09T17:13:23.267Z,2.70
2024-05-09T17:15:53.356Z,2.90
2024-05-09T17:18:20.902Z,2.53
2024-05-09T17:20:51.764Z,2.60
2024-05-09T17:23:18.774Z,2.27
2024-05-09T17:25:48.878Z,2.40
2024-05-09T17:28:19.064Z,2.60
2024-05-09T17:30:49.144Z,2.40
2024-05-09T17:33:16.329Z,3.03
2024-05-09T17:35:50.285Z,2.70
2024-05-09T17:38:17.810Z,3.60
2024-05-09T17:40:47.670Z,3.17
2024-05-09T17:43:15.221Z,3.80
2024-05-09T17:45:47.829Z,2.83
2024-05-09T17:48:15.190Z,3.13
2024-05-09T17:50:45.032Z,2.93
2024-05-09T17:53:12.173Z,2.73
2024-05-09T17:55:42.658Z,2.60
2024-05-09T17:58:10.354Z,2.73
2024-05-09T18:00:42.220Z,2.70
2024-05-09T18:03:13.604Z,2.50
2024-05-09T18:05:45.041Z,2.47
2024-05-09T18:08:13.101Z,2.33
2024-05-09T18:10:43.293Z,2.60
2024-05-09T18:13:11.422Z,2.30
2024-05-09T18:15:41.781Z,2.70
2024-05-09T18:18:10.631Z,2.20
2024-05-09T18:20:45.670Z,2.70
2024-05-09T18:23:16.024Z,3.30
2024-05-09T18:25:48.063Z,2.47
2024-05-09T18:28:15.929Z,3.10
2024-05-09T18:30:46.076Z,3.13
2024-05-09T18:33:13.707Z,2.93
2024-05-09T18:35:47.380Z,3.07
2024-05-09T18:38:14.688Z,3.20
2024-05-09T18:40:47.212Z,3.23
2024-05-09T18:43:16.404Z,3.57
2024-05-09T18:45:46.587Z,4.07
2024-05-09T18:48:13.866Z,3.90
2024-05-09T18:50:46.409Z,4.57
2024-05-09T18:53:14.285Z,3.67
2024-05-09T18:55:44.397Z,3.60
2024-05-09T18:58:11.989Z,3.30
2024-05-09T19:00:45.308Z,3.20
2024-05-09T19:03:17.594Z,3.53
2024-05-09T19:05:50.242Z,3.70
2024-05-09T19:08:17.350Z,3.63
2024-05-09T19:10:47.899Z,4.07
2024-05-09T19:13:15.400Z,4.77
2024-05-09T19:15:45.414Z,4.17
2024-05-09T19:18:13.931Z,4.50
2024-05-09T19:20:44.362Z,4.73
2024-05-09T19:23:14.135Z,4.50
2024-05-09T19:25:43.955Z,4.60
2024-05-09T19:28:11.039Z,4.60
2024-05-09T19:30:42.576Z,5.50
2024-05-09T19:33:12.750Z,5.23
2024-05-09T19:35:43.932Z,3.50
2024-05-09T19:38:13.878Z,3.33
2024-05-09T19:40:43.663Z,3.50
2024-05-09T19:43:11.165Z,3.27
2024-05-09T19:45:41.153Z,3.73
2024-05-09T19:48:08.676Z,3.57
2024-05-09T19:50:43.141Z,3.93
2024-05-09T19:53:14.782Z,3.60
2024-05-09T19:55:45.038Z,4.63
2024-05-09T19:58:12.929Z,4.47
2024-05-09T20:00:44.382Z,3.30
2024-05-09T20:03:13.174Z,3.30
2024-05-09T20:05:45.129Z,3.40
2024-05-09T20:08:15.271Z,3.40
2024-05-09T20:10:45.234Z,3.20
2024-05-09T20:13:13.711Z,3.10
2024-05-09T20:15:43.501Z,3.57
2024-05-09T20:18:10.959Z,3.40
2024-05-09T20:20:43.072Z,3.50
2024-05-09T20:23:14.637Z,3.67
2024-05-09T20:25:44.780Z,3.30
2024-05-09T20:28:11.993Z,3.60
2024-05-09T20:30:42.076Z,3.50
2024-05-09T20:33:10.034Z,3.33
2024-05-09T20:35:40.541Z,3.50
2024-05-09T20:38:07.931Z,3.40
2024-05-09T20:40:40.488Z,3.63
2024-05-09T20:43:10.254Z,3.73
2024-05-09T20:45:41.265Z,3.57
2024-05-09T20:48:09.626Z,3.10
2024-05-09T20:50:42.027Z,3.33
2024-05-09T20:53:11.102Z,3.27
2024-05-09T20:55:44.537Z,3.37
2024-05-09T20:58:12.255Z,3.30
2024-05-09T21:00:45.017Z,3.40
2024-05-09T21:03:16.149Z,3.47
2024-05-09T21:05:47.681Z,3.40
2024-05-09T21:08:15.509Z,3.13
2024-05-09T21:10:48.113Z,3.63
2024-05-09T21:13:15.335Z,3.77
2024-05-09T21:15:45.169Z,3.80
2024-05-09T21:18:12.458Z,3.30
2024-05-09T21:20:42.235Z,3.67
2024-05-09T21:23:09.249Z,3.97
2024-05-09T21:25:38.901Z,4.43
2024-05-09T21:28:08.850Z,5.07
2024-05-09T21:30:42.481Z,5.30
2024-05-09T21:33:12.681Z,4.50
2024-05-09T21:35:44.606Z,4.43
2024-05-09T21:38:13.806Z,5.10
2024-05-09T21:40:44.214Z,4.83
2024-05-09T21:43:14.588Z,5.17
2024-05-09T21:45:44.777Z,5.90
2024-05-09T21:48:13.241Z,6.10
2024-05-09T21:50:43.207Z,5.90
2024-05-09T21:53:11.206Z,6.93
2024-05-09T21:55:41.134Z,5.87
2024-05-09T21:58:08.439Z,5.43
2024-05-09T22:00:42.879Z,5.53
2024-05-09T22:03:11.616Z,4.43
2024-05-09T22:05:44.376Z,4.53
2024-05-09T22:08:12.134Z,3.90
2024-05-09T22:10:41.877Z,4.40
2024-05-09T22:13:11.936Z,6.23
2024-05-09T22:15:42.370Z,6.40
2024-05-09T22:18:12.655Z,6.13
2024-05-09T22:20:44.887Z,5.43
2024-05-09T22:23:16.364Z,5.20
2024-05-09T22:25:43.437Z,4.57
2024-05-09T22:28:14.053Z,4.60
2024-05-09T22:30:46.095Z,4.77
2024-05-09T22:33:17.270Z,7.17
2024-05-09T22:35:44.524Z,10.73
2024-05-09T22:38:14.186Z,10.07
2024-05-09T22:40:47.452Z,6.90
2024-05-09T22:43:24.737Z,5.80
2024-05-09T22:45:55.667Z,5.37
2024-05-09T22:48:26.412Z,5.70
2024-05-09T22:50:55.381Z,6.03
2024-05-09T22:53:26.400Z,5.27
2024-05-09T22:55:54.126Z,5.30
2024-05-09T22:58:24.405Z,4.67
2024-05-09T23:00:56.048Z,4.87
2024-05-09T23:03:26.793Z,4.97
2024-05-09T23:05:54.023Z,4.50
2024-05-09T23:08:23.777Z,4.40
2024-05-09T23:10:51.139Z,4.17
2024-05-09T23:13:21.169Z,4.83
2024-05-09T23:15:49.352Z,4.73
2024-05-09T23:18:22.722Z,4.67
2024-05-09T23:20:50.111Z,4.57
2024-05-09T23:23:19.891Z,4.67
2024-05-09T23:25:47.028Z,4.80
2024-05-09T23:28:16.954Z,4.00
2024-05-09T23:30:44.079Z,4.10
2024-05-09T23:33:15.306Z,3.83
2024-05-09T23:35:45.198Z,4.53
2024-05-09T23:38:15.263Z,4.50
2024-05-09T23:40:43.296Z,4.10
2024-05-09T23:43:14.219Z,4.30
2024-05-09T23:45:42.512Z,4.60
2024-05-09T23:48:12.824Z,4.03
2024-05-09T23:50:40.854Z,4.20
2024-05-09T23:53:14.292Z,3.90
2024-05-09T23:55:41.480Z,3.80
2024-05-09T23:58:11.592Z,3.67
